Time;durP1;ratioP1;P1;durP2;ratioP2;P2;SDS_P1;SDS_P2;PMS_P1;PMS_P2;Temp;Humidity;BMP_temperature;BMP_pressure;BME280_temperature;BME280_humidity;BME280_pressure;Samples;Min_cycle;Max_cycle;Signal;HPM_P1;HPM_P2
2022/08/25 00:00:21;;;;;;;10.00;6.40;;;;;;;17.11;91.13;97389.83;110117;1250;71410;-65
2022/08/25 00:03:06;;;;;;;14.50;6.90;;;;;;;17.05;91.41;97399.54;109998;1248;69416;-66
2022/08/25 00:05:35;;;;;;;12.80;6.80;;;;;;;17.00;90.88;97397.95;109996;1250;69348;-66
2022/08/25 00:08:06;;;;;;;12.50;7.60;;;;;;;16.95;91.62;97399.13;110016;1250;59701;-66
2022/08/25 00:10:36;;;;;;;;;;;;;;;16.89;93.61;97402.54;110027;1250;59688;-66
2022/08/25 00:13:06;;;;;;;11.40;6.80;;;;;;;16.83;93.85;97398.95;110066;1249;70653;-63
2022/08/25 00:15:37;;;;;;;16.50;10.90;;;;;;;16.80;93.58;97399.91;110053;1250;68594;-66
2022/08/25 00:18:06;;;;;;;13.50;9.50;;;;;;;16.78;93.23;97398.02;110058;1250;69471;-66
2022/08/25 00:20:48;;;;;;;12.30;7.80;;;;;;;16.75;92.39;97394.23;110060;1248;59747;-66
2022/08/25 00:23:18;;;;;;;11.30;8.70;;;;;;;16.72;92.95;97387.84;110024;1248;59688;-65
2022/08/25 00:25:47;;;;;;;13.10;8.80;;;;;;;16.68;91.72;97382.38;110031;1250;70777;-65
2022/08/25 00:28:16;;;;;;;13.70;9.40;;;;;;;16.65;90.89;97380.45;110016;1250;69856;-66
2022/08/25 00:30:48;;;;;;;;;;;;;;;16.61;92.10;97377.48;110046;1250;69414;-65
2022/08/25 00:33:18;;;;;;;12.50;8.60;;;;;;;16.56;92.50;97373.55;110047;1250;59692;-66
2022/08/25 00:35:49;;;;;;;12.20;7.90;;;;;;;16.55;90.90;97368.90;110015;1250;59693;-65
2022/08/25 00:38:19;;;;;;;15.40;9.70;;;;;;;16.53;92.50;97371.35;110025;1248;71512;-66
2022/08/25 00:41:04;;;;;;;15.30;10.30;;;;;;;16.50;92.95;97366.73;110092;1247;68688;-66
2022/08/25 00:43:44;;;;;;;14.30;8.30;;;;;;;16.48;92.10;97365.85;110056;1248;67651;-65
2022/08/25 00:46:22;;;;;;;14.00;9.90;;;;;;;16.47;91.42;97365.90;110032;1251;59805;-66
2022/08/25 00:49:00;;;;;;;13.10;11.10;;;;;;;16.43;91.28;97364.48;110037;1247;59665;-67
2022/08/25 00:51:37;;;;;;;14.50;8.80;;;;;;;16.38;94.66;97364.27;110042;1248;71694;-64
2022/08/25 00:54:12;;;;;;;14.30;9.30;;;;;;;16.32;96.74;97361.33;110079;1247;69493;-66
2022/08/25 00:56:44;;;;;;;15.30;9.00;;;;;;;16.27;97.17;97360.02;110161;1248;69232;-66
2022/08/25 00:59:15;;;;;;;13.10;8.60;;;;;;;16.23;96.00;97364.08;110153;1248;60152;-66
2022/08/25 01:01:48;;;;;;;13.80;8.20;;;;;;;16.20;95.13;97365.13;110094;1247;59749;-67
2022/08/25 01:04:18;;;;;;;15.00;9.50;;;;;;;16.16;96.45;97363.36;110075;1248;71509;-65
2022/08/25 01:06:48;;;;;;;17.50;9.00;;;;;;;16.13;95.89;97362.80;110051;1248;68552;-66
2022/08/25 01:09:19;;;;;;;14.30;8.70;;;;;;;16.10;97.14;97361.30;109797;1251;69420;-66
2022/08/25 01:11:49;;;;;;;11.60;7.30;;;;;;;16.07;96.63;97350.33;110080;1247;59750;-65
2022/08/25 01:14:22;;;;;;;12.80;8.80;;;;;;;16.04;96.60;97355.36;110110;1250;59674;-67
2022/08/25 01:16:53;;;;;;;14.00;8.20;;;;;;;16.00;96.07;97354.90;110041;1248;70657;-66
2022/08/25 01:19:25;;;;;;;11.30;7.90;;;;;;;15.97;96.47;97353.94;109795;1250;69575;-65
2022/08/25 01:21:55;;;;;;;11.90;7.40;;;;;;;15.94;95.35;97351.27;110065;1247;71031;-66
2022/08/25 01:24:33;;;;;;;10.90;7.20;;;;;;;15.91;96.43;97347.91;110005;1250;59767;-66
2022/08/25 01:27:04;;;;;;;10.70;7.20;;;;;;;15.89;97.66;97347.77;110072;1248;59675;-67
2022/08/25 01:29:34;;;;;;;9.20;5.50;;;;;;;15.84;96.74;97340.33;110039;1248;71515;-66
2022/08/25 01:32:09;;;;;;;11.90;7.00;;;;;;;15.80;96.69;97343.62;109737;1251;68673;-66
2022/08/25 01:34:42;;;;;;;12.10;7.70;;;;;;;15.75;95.35;97340.90;110025;1250;69492;-65
2022/08/25 01:37:14;;;;;;;13.30;8.00;;;;;;;15.71;95.86;97338.73;109998;1250;59744;-66
2022/08/25 01:39:44;;;;;;;12.50;8.50;;;;;;;15.65;95.06;97337.72;110036;1249;59653;-65
2022/08/25 01:42:36;;;;;;;11.50;8.00;;;;;;;15.60;94.39;97343.40;110056;1247;71465;-66
2022/08/25 01:45:07;;;;;;;14.80;8.80;;;;;;;15.56;95.83;97341.49;110051;1247;68755;-67
2022/08/25 01:47:37;;;;;;;16.20;9.50;;;;;;;15.53;97.85;97341.63;110010;1248;68385;-65
2022/08/25 01:50:07;;;;;;;12.00;7.80;;;;;;;15.49;97.26;97342.86;110072;1248;59733;-66
2022/08/25 01:52:50;;;;;;;11.40;7.70;;;;;;;15.45;96.12;97344.59;110029;1250;59694;-66
2022/08/25 01:55:20;;;;;;;12.70;8.60;;;;;;;15.44;95.65;97342.66;110107;1249;71840;-66
2022/08/25 01:57:51;;;;;;;9.90;6.40;;;;;;;15.41;95.45;97339.94;110090;1250;69500;-65
2022/08/25 02:00:22;;;;;;;8.80;6.50;;;;;;;15.40;95.98;97336.52;110072;1250;68310;-66
2022/08/25 02:02:52;;;;;;;19.30;10.20;;;;;;;15.38;95.56;97334.08;110036;1250;59715;-66
2022/08/25 02:05:23;;;;;;;15.30;9.70;;;;;;;15.37;95.52;97332.81;110009;1249;59689;-66
2022/08/25 02:07:53;;;;;;;12.70;8.50;;;;;;;15.35;95.94;97332.98;110054;1250;70752;-65
2022/08/25 02:10:23;;;;;;;16.30;9.10;;;;;;;15.32;95.73;97332.58;109994;1250;68986;-66
2022/08/25 02:12:54;;;;;;;11.50;7.40;;;;;;;15.28;96.41;97330.69;110054;1249;69435;-65
2022/08/25 02:15:24;;;;;;;12.40;8.50;;;;;;;15.25;95.59;97329.63;110079;1250;59745;-67
2022/08/25 02:17:54;;;;;;;;;;;;;;;15.23;96.28;97332.09;110063;1250;59700;-66
2022/08/25 02:20:25;;;;;;;10.80;6.90;;;;;;;15.19;96.89;97332.98;110049;1250;70829;-64
2022/08/25 02:22:55;;;;;;;17.40;8.60;;;;;;;15.16;95.74;97332.79;110031;1249;68647;-65
2022/08/25 02:25:25;;;;;;;16.50;9.30;;;;;;;15.14;98.31;97332.45;110022;1250;69832;-66
2022/08/25 02:27:56;;;;;;;16.80;9.80;;;;;;;15.10;98.14;97335.48;110018;1250;59768;-64
2022/08/25 02:30:27;;;;;;;16.90;10.80;;;;;;;15.05;97.06;97333.98;110080;1249;59640;-64
2022/08/25 02:32:57;;;;;;;15.30;9.50;;;;;;;15.02;96.88;97336.67;110054;1250;71664;-64
2022/08/25 02:35:28;;;;;;;17.20;7.90;;;;;;;15.02;97.96;97335.45;110089;1247;68413;-64
2022/08/25 02:37:58;;;;;;;16.90;8.90;;;;;;;15.02;98.47;97337.58;110105;1247;69262;-65
2022/08/25 02:40:29;;;;;;;13.10;7.90;;;;;;;15.02;97.30;97340.00;110098;1247;59668;-66
2022/08/25 02:42:58;;;;;;;;;;;;;;;15.00;94.88;97341.39;110074;1248;59689;-66
2022/08/25 02:45:29;;;;;;;14.50;7.30;;;;;;;14.95;95.20;97344.20;110039;1251;71602;-64
2022/08/25 02:47:59;;;;;;;10.00;6.40;;;;;;;14.89;96.78;97347.20;110007;1250;68799;-66
2022/08/25 02:50:29;;;;;;;13.40;7.90;;;;;;;14.80;96.69;97349.05;110036;1250;69384;-67
2022/08/25 02:52:58;;;;;;;12.70;7.60;;;;;;;14.74;97.51;97353.27;110046;1249;59821;-66
2022/08/25 02:55:28;;;;;;;10.20;6.90;;;;;;;14.69;98.28;97351.24;110137;1250;59694;-66
2022/08/25 02:58:03;;;;;;;12.90;7.50;;;;;;;14.66;96.95;97355.59;110105;1250;70717;-66
2022/08/25 03:00:34;;;;;;;11.40;5.50;;;;;;;14.64;96.51;97355.42;110053;1250;69221;-66
2022/08/25 03:03:05;;;;;;;14.20;7.30;;;;;;;14.63;96.80;97352.73;110029;1250;69295;-66
2022/08/25 03:05:36;;;;;;;10.30;7.00;;;;;;;14.63;99.07;97349.16;109715;1250;59738;-66
2022/08/25 03:08:07;;;;;;;15.30;8.10;;;;;;;14.63;98.96;97347.12;110077;1248;59678;-66
2022/08/25 03:10:37;;;;;;;10.20;7.20;;;;;;;14.63;99.99;97345.35;110111;1248;71919;-65
2022/08/25 03:13:08;;;;;;;12.70;6.10;;;;;;;14.61;99.39;97342.88;110144;1248;68417;-65
2022/08/25 03:15:41;;;;;;;12.50;6.80;;;;;;;14.59;98.42;97350.21;110111;1247;69438;-65
2022/08/25 03:18:11;;;;;;;11.10;7.70;;;;;;;14.57;97.79;97354.15;110098;1247;59773;-65
2022/08/25 03:20:41;;;;;;;12.80;6.90;;;;;;;14.53;97.42;97357.47;109989;1248;59699;-65
2022/08/25 03:23:11;;;;;;;12.00;8.20;;;;;;;14.49;97.76;97362.56;110090;1247;71525;-66
2022/08/25 03:28:40;;;;;;;14.10;7.80;;;;;;;14.40;96.04;97365.42;109461;1248;69995;-65
2022/08/25 03:31:10;;;;;;;;;;;;;;;14.41;94.93;97368.19;110081;1248;59752;-65
2022/08/25 03:33:39;;;;;;;14.70;7.90;;;;;;;14.45;95.57;97365.73;110010;1247;59641;-65
2022/08/25 03:36:11;;;;;;;;;;;;;;;14.47;96.08;97365.53;110079;1247;70626;-65
2022/08/25 03:38:40;;;;;;;11.00;6.70;;;;;;;14.47;94.95;97374.09;110085;1247;69549;-65
2022/08/25 03:41:20;;;;;;;10.70;6.50;;;;;;;14.46;94.49;97371.02;110056;1247;68630;-65
2022/08/25 03:43:50;;;;;;;10.40;6.00;;;;;;;14.45;94.29;97371.95;110033;1247;59686;-65
2022/08/25 03:46:23;;;;;;;7.80;6.30;;;;;;;14.46;94.42;97369.94;110039;1248;59695;-65
2022/08/25 03:48:53;;;;;;;11.10;8.10;;;;;;;14.46;94.32;97372.98;109666;1251;70617;-65
2022/08/25 03:51:24;;;;;;;10.20;7.10;;;;;;;14.45;94.84;97377.73;110084;1247;69483;-67
2022/08/25 03:53:55;;;;;;;9.90;5.50;;;;;;;14.46;96.09;97378.02;110070;1247;68039;-66
2022/08/25 03:56:26;;;;;;;38.80;9.70;;;;;;;14.46;96.51;97376.59;110225;1247;59754;-65
2022/08/25 03:58:56;;;;;;;9.70;6.40;;;;;;;14.42;98.57;97376.85;109890;1250;59691;-67
2022/08/25 04:01:26;;;;;;;;;;;;;;;14.40;98.87;97381.37;110070;1248;69927;-64
2022/08/25 04:03:56;;;;;;;13.90;7.20;;;;;;;14.38;99.75;97370.49;110102;1248;68376;-65
2022/08/25 04:06:26;;;;;;;10.70;6.20;;;;;;;14.40;98.74;97370.36;110039;1247;69442;-66
2022/08/25 04:08:57;;;;;;;11.50;8.30;;;;;;;14.42;99.48;97370.49;109738;1251;60184;-66
2022/08/25 04:11:27;;;;;;;12.70;8.40;;;;;;;14.45;100.00;97371.98;110071;1247;59779;-66
2022/08/25 04:13:59;;;;;;;14.40;8.40;;;;;;;14.48;99.88;97376.87;110051;1248;71530;-65
2022/08/25 04:16:32;;;;;;;12.30;8.00;;;;;;;14.48;99.43;97376.80;110091;1247;68714;-65
2022/08/25 04:19:04;;;;;;;12.50;7.80;;;;;;;14.49;99.29;97376.80;110049;1248;69971;-66
2022/08/25 04:21:36;;;;;;;11.80;7.60;;;;;;;14.50;99.69;97372.99;110069;1247;59690;-65
2022/08/25 04:24:07;;;;;;;8.70;6.00;;;;;;;14.52;99.92;97374.53;110086;1247;59808;-65
2022/08/25 04:26:46;;;;;;;16.00;10.70;;;;;;;14.55;99.37;97375.19;110047;1247;71616;-65
2022/08/25 04:29:19;;;;;;;13.10;8.80;;;;;;;14.54;98.08;97377.52;110070;1249;68505;-65
2022/08/25 04:31:53;;;;;;;14.40;9.50;;;;;;;14.57;98.22;97377.11;109973;1250;69460;-64
2022/08/25 04:34:24;;;;;;;15.50;10.50;;;;;;;14.61;98.12;97380.04;109979;1250;59687;-65
2022/08/25 04:37:02;;;;;;;14.80;8.70;;;;;;;14.65;97.53;97382.66;110023;1250;59664;-65
2022/08/25 04:39:31;;;;;;;10.70;7.60;;;;;;;14.68;96.97;97385.39;110050;1250;71530;-65
2022/08/25 04:42:03;;;;;;;11.10;7.30;;;;;;;14.73;96.81;97376.15;110042;1250;68710;-65
2022/08/25 04:44:34;;;;;;;10.80;7.10;;;;;;;14.80;97.07;97382.02;110086;1247;68767;-65
2022/08/25 04:47:04;;;;;;;11.60;7.50;;;;;;;14.86;97.81;97380.67;110067;1247;59684;-65
2022/08/25 04:49:33;;;;;;;11.30;8.00;;;;;;;14.91;98.14;97387.02;110094;1247;59695;-66
2022/08/25 04:52:02;;;;;;;10.90;8.00;;;;;;;14.97;97.54;97386.05;110051;1248;71645;-66
2022/08/25 04:54:31;;;;;;;10.20;7.50;;;;;;;15.05;97.27;97386.64;108773;1247;1775979;-66
2022/08/25 04:57:05;;;;;;;15.40;9.90;;;;;;;15.14;97.69;97381.80;110166;1247;68847;-65
2022/08/25 04:59:34;;;;;;;10.00;6.90;;;;;;;15.22;97.17;97384.35;110097;1247;59790;-67
2022/08/25 05:02:05;;;;;;;10.70;7.20;;;;;;;15.32;96.10;97387.98;110103;1247;59768;-65
2022/08/25 05:04:35;;;;;;;12.20;8.30;;;;;;;15.41;95.78;97383.64;110133;1247;71801;-64
2022/08/25 05:07:05;;;;;;;16.30;9.70;;;;;;;15.49;95.98;97383.75;109723;1251;69520;-63
2022/08/25 05:09:34;;;;;;;13.80;8.80;;;;;;;15.51;96.53;97385.86;110065;1247;69396;-66
2022/08/25 05:12:04;;;;;;;13.20;8.70;;;;;;;15.54;96.23;97385.73;110054;1247;59695;-65
2022/08/25 05:14:34;;;;;;;12.30;8.10;;;;;;;15.58;95.42;97391.20;110071;1247;59723;-65
2022/08/25 05:17:03;;;;;;;13.20;7.80;;;;;;;15.57;95.10;97385.31;110084;1247;71345;-64
2022/08/25 05:19:32;;;;;;;13.80;6.70;;;;;;;15.60;94.97;97389.41;109816;1247;68734;-67
2022/08/25 05:22:01;;;;;;;12.50;7.60;;;;;;;15.71;95.34;97389.98;110034;1247;69473;-64
2022/08/25 05:24:30;;;;;;;13.20;7.50;;;;;;;15.82;95.28;97390.86;110089;1245;59707;-65
2022/08/25 05:27:02;;;;;;;11.70;7.10;;;;;;;15.97;95.83;97392.16;110085;1248;59696;-65
2022/08/25 05:29:31;;;;;;;10.50;7.80;;;;;;;16.13;95.10;97397.14;110058;1247;71599;-65
2022/08/25 05:32:00;;;;;;;14.30;7.90;;;;;;;16.27;93.44;97398.20;110041;1249;69439;-65
2022/08/25 05:34:29;;;;;;;11.30;7.40;;;;;;;16.44;93.32;97398.16;109979;1248;67523;-65
2022/08/25 05:36:58;;;;;;;10.60;6.30;;;;;;;16.58;92.86;97396.57;110075;1247;60208;-65
2022/08/25 05:39:31;;;;;;;11.30;7.20;;;;;;;16.78;92.62;97397.48;110070;1247;59689;-65
2022/08/25 05:42:00;;;;;;;16.00;8.60;;;;;;;17.00;91.09;97394.75;110049;1247;72168;-64
2022/08/25 05:44:30;;;;;;;12.00;7.70;;;;;;;17.15;89.89;97397.91;110047;1247;68407;-64
2022/08/25 05:46:58;;;;;;;;;;;;;;;17.30;89.90;97402.73;110064;1247;68033;-66
2022/08/25 05:49:27;;;;;;;10.50;7.50;;;;;;;17.38;88.49;97404.61;110028;1247;59787;-66
2022/08/25 05:51:56;;;;;;;12.60;6.80;;;;;;;17.53;87.32;97400.26;110046;1247;59622;-67
2022/08/25 05:54:25;;;;;;;8.10;6.00;;;;;;;17.72;87.79;97405.71;110055;1247;71385;-66
2022/08/25 05:56:55;;;;;;;17.20;8.50;;;;;;;17.94;87.70;97403.97;110018;1249;68681;-67
2022/08/25 05:59:23;;;;;;;11.40;7.50;;;;;;;18.12;85.75;97402.33;110074;1248;69836;-67
2022/08/25 06:04:40;;;;;;;13.60;6.20;;;;;;;18.57;81.04;97393.20;110068;1247;59676;-66
2022/08/25 06:07:09;;;;;;;14.30;6.90;;;;;;;18.93;78.61;97393.03;110136;1247;72146;-65
2022/08/25 06:09:40;;;;;;;15.00;6.50;;;;;;;19.31;75.81;97389.89;110013;1247;70007;-65
2022/08/25 06:12:09;;;;;;;13.60;6.00;;;;;;;19.63;75.02;97390.40;109697;1251;68470;-66
2022/08/25 06:14:39;;;;;;;15.90;7.60;;;;;;;19.98;75.72;97395.72;110012;1247;59680;-65
2022/08/25 06:17:08;;;;;;;16.30;7.70;;;;;;;20.11;74.31;97398.20;109826;1247;59757;-65
2022/08/25 06:19:37;;;;;;;9.10;5.20;;;;;;;20.45;75.36;97400.35;109832;1251;71757;-65
2022/08/25 06:22:08;;;;;;;10.30;5.70;;;;;;;21.00;72.69;97395.70;110034;1247;69302;-66
2022/08/25 06:24:37;;;;;;;13.90;6.50;;;;;;;21.42;69.77;97394.84;110031;1249;68611;-66
2022/08/25 06:27:06;;;;;;;10.10;5.10;;;;;;;22.00;72.15;97399.69;109717;1251;59746;-66
2022/08/25 06:29:35;;;;;;;12.30;5.50;;;;;;;22.39;66.51;97401.20;110056;1248;59695;-66
2022/08/25 06:32:05;;;;;;;14.00;6.50;;;;;;;22.86;67.01;97401.46;109947;1250;71424;-68
2022/08/25 06:34:35;;;;;;;11.30;6.50;;;;;;;23.06;63.60;97399.59;110007;1248;69780;-66
2022/08/25 06:37:04;;;;;;;11.70;5.80;;;;;;;23.50;64.84;97399.35;109774;1250;69486;-67
2022/08/25 06:39:33;;;;;;;13.00;5.90;;;;;;;23.87;63.66;97398.65;109731;1249;59769;-67
2022/08/25 06:42:02;;;;;;;12.50;6.00;;;;;;;24.24;65.19;97397.10;109618;1251;59735;-67
2022/08/25 06:44:31;;;;;;;13.90;6.70;;;;;;;24.60;60.31;97395.33;109784;1251;72012;-67
2022/08/25 06:46:59;;;;;;;14.00;5.70;;;;;;;24.89;57.60;97393.11;110048;1248;69852;-67
2022/08/25 06:49:28;;;;;;;12.10;5.90;;;;;;;25.31;59.60;97394.47;109778;1248;69501;-65
2022/08/25 06:52:03;;;;;;;15.20;6.60;;;;;;;25.52;55.80;97389.16;110006;1247;59761;-66
2022/08/25 06:54:32;;;;;;;12.70;5.50;;;;;;;25.42;55.61;97396.20;110061;1247;59676;-66
2022/08/25 06:57:02;;;;;;;19.00;6.20;;;;;;;25.74;56.06;97397.02;110124;1247;71740;-66
2022/08/25 06:59:32;;;;;;;14.60;6.60;;;;;;;26.02;54.98;97400.04;110191;1247;69436;-66
2022/08/25 07:02:03;;;;;;;17.30;7.10;;;;;;;26.01;53.28;97396.77;109783;1247;68569;-66
2022/08/25 07:04:34;;;;;;;13.50;5.90;;;;;;;25.94;52.79;97392.75;110062;1247;59675;-66
2022/08/25 07:07:03;;;;;;;13.30;5.70;;;;;;;25.93;52.58;97394.81;110060;1247;59742;-65
2022/08/25 07:09:33;;;;;;;10.90;5.40;;;;;;;26.01;51.63;97388.42;110086;1247;71315;-66
2022/08/25 07:12:07;;;;;;;14.30;5.30;;;;;;;26.33;51.94;97393.23;110063;1247;68619;-65
2022/08/25 07:14:36;;;;;;;16.80;6.00;;;;;;;26.55;50.13;97391.42;110028;1247;69227;-66
2022/08/25 07:17:05;;;;;;;;;;;;;;;26.75;50.56;97386.13;110061;1247;59691;-66
2022/08/25 07:19:39;;;;;;;14.50;5.90;;;;;;;27.04;50.36;97384.96;110000;1250;59763;-66
2022/08/25 07:22:08;;;;;;;14.80;5.50;;;;;;;27.33;49.55;97387.34;109880;1250;72241;-66
2022/08/25 07:24:37;;;;;;;15.30;6.10;;;;;;;27.49;48.76;97381.27;110035;1248;69996;-65
2022/08/25 07:27:06;;;;;;;;;;;;;;;27.80;48.06;97377.70;110056;1247;68913;-66
2022/08/25 07:29:37;;;;;;;14.60;6.20;;;;;;;28.16;47.77;97379.80;110076;1247;59764;-66
2022/08/25 07:32:09;;;;;;;13.40;5.10;;;;;;;28.23;46.23;97378.60;110026;1247;59715;-67
2022/08/25 07:37:26;;;;;;;14.40;6.00;;;;;;;27.63;46.08;97371.93;110020;1247;69973;-66
2022/08/25 07:40:41;;;;;;;14.40;5.70;;;;;;;27.93;45.94;97373.35;110000;1247;70045;-64
2022/08/25 07:43:10;;;;;;;13.70;4.80;;;;;;;28.04;45.38;97366.42;109990;1247;59750;-66
2022/08/25 07:45:39;;;;;;;11.00;5.10;;;;;;;28.31;45.20;97366.95;110057;1247;59673;-67
2022/08/25 07:48:19;;;;;;;12.40;5.30;;;;;;;28.49;44.57;97367.25;110019;1248;71676;-66
2022/08/25 07:50:48;;;;;;;12.70;5.80;;;;;;;28.91;43.28;97367.45;110056;1249;69800;-67
2022/08/25 07:53:18;;;;;;;16.80;5.60;;;;;;;28.63;41.97;97361.54;110002;1248;69850;-67
2022/08/25 07:55:47;;;;;;;21.20;6.70;;;;;;;28.71;42.78;97355.39;110096;1248;59728;-67
2022/08/25 07:58:17;;;;;;;13.20;5.20;;;;;;;29.25;42.83;97360.56;110130;1247;60068;-67
2022/08/25 08:00:47;;;;;;;15.00;6.00;;;;;;;29.13;42.01;97359.46;110075;1247;72147;-66
2022/08/25 08:03:19;;;;;;;12.70;4.90;;;;;;;28.97;41.87;97354.85;109791;1250;70169;-67
2022/08/25 08:06:11;;;;;;;14.90;4.90;;;;;;;28.74;42.23;97356.97;109949;1249;70237;-67
2022/08/25 08:08:44;;;;;;;12.40;4.90;;;;;;;29.13;41.53;97354.56;109997;1250;59694;-67
2022/08/25 08:11:25;;;;;;;16.70;5.90;;;;;;;29.33;40.62;97352.67;110036;1249;59714;-65
2022/08/25 08:13:56;;;;;;;12.60;4.50;;;;;;;29.47;39.83;97344.52;109978;1248;71549;-67
2022/08/25 08:16:27;;;;;;;12.20;5.00;;;;;;;29.96;39.96;97353.02;110009;1247;68467;-66
2022/08/25 08:18:57;;;;;;;13.90;4.80;;;;;;;30.37;39.08;97345.26;110017;1247;68708;-67
2022/08/25 08:21:32;;;;;;;11.40;4.30;;;;;;;30.87;38.89;97341.87;109725;1251;59748;-66
2022/08/25 08:24:02;;;;;;;13.40;4.60;;;;;;;31.34;37.78;97337.33;109631;1250;59711;-67
2022/08/25 08:26:42;;;;;;;13.80;4.00;;;;;;;31.76;36.39;97335.88;109619;1249;71344;-67
2022/08/25 08:29:26;;;;;;;10.10;3.70;;;;;;;32.22;35.88;97335.54;109727;1250;69364;-67
2022/08/25 08:31:55;;;;;;;10.30;3.50;;;;;;;32.70;33.85;97332.57;109605;1251;69252;-66
2022/08/25 08:34:25;;;;;;;9.60;3.80;;;;;;;32.71;33.40;97331.17;109617;1250;59705;-68
2022/08/25 08:36:55;;;;;;;12.20;4.80;;;;;;;33.10;33.48;97325.18;109826;1250;59672;-67
2022/08/25 08:39:25;;;;;;;8.90;3.80;;;;;;;33.30;32.04;97326.48;109733;1250;71536;-67
2022/08/25 08:42:18;;;;;;;11.20;3.70;;;;;;;32.99;31.32;97325.35;109746;1250;69225;-66
2022/08/25 08:45:07;;;;;;;10.60;3.20;;;;;;;33.08;32.45;97322.22;110011;1247;69558;-66
2022/08/25 08:47:55;;;;;;;13.10;3.80;;;;;;;33.87;31.39;97323.31;110075;1247;59710;-67
2022/08/25 08:50:44;;;;;;;12.00;3.90;;;;;;;34.10;31.74;97326.03;110107;1247;59785;-67
2022/08/25 08:53:26;;;;;;;9.60;3.50;;;;;;;34.83;31.56;97322.92;110110;1247;70530;-66
2022/08/25 08:56:06;;;;;;;7.20;3.00;;;;;;;35.22;30.98;97319.83;109796;1250;69389;-67
2022/08/25 08:58:42;;;;;;;8.30;3.00;;;;;;;35.85;29.03;97317.59;110040;1250;69993;-67
2022/08/25 09:01:17;;;;;;;11.40;4.00;;;;;;;36.27;28.03;97319.04;110060;1249;59732;-68
2022/08/25 09:03:54;;;;;;;13.40;4.00;;;;;;;36.18;27.88;97315.91;110167;1249;59677;-67
2022/08/25 09:06:40;;;;;;;9.50;3.80;;;;;;;36.35;27.63;97312.42;110154;1249;69877;-67
2022/08/25 09:09:18;;;;;;;11.70;3.40;;;;;;;35.71;25.55;97309.77;110058;1250;69827;-69
2022/08/25 09:12:05;;;;;;;10.40;2.80;;;;;;;35.51;25.27;97308.79;109998;1250;69853;-68
2022/08/25 09:14:53;;;;;;;12.30;3.00;;;;;;;36.23;26.97;97310.29;110013;1249;59737;-66
2022/08/25 09:18:00;;;;;;;10.30;3.00;;;;;;;36.02;24.48;97308.62;110069;1249;59750;-66
2022/08/25 09:20:38;;;;;;;12.10;3.30;;;;;;;36.11;20.58;97308.90;109611;1250;72305;-67
2022/08/25 09:23:38;;;;;;;8.60;3.00;;;;;;;35.91;20.20;97306.54;110002;1249;69404;-65
2022/08/25 09:26:23;;;;;;;11.70;3.30;;;;;;;35.37;21.85;97305.58;110034;1250;69103;-67
2022/08/25 09:29:06;;;;;;;5.90;2.60;;;;;;;35.55;22.60;97301.54;109998;1249;59964;-67
2022/08/25 09:31:44;;;;;;;10.10;2.50;;;;;;;36.10;21.69;97297.20;109962;1249;59710;-67
2022/08/25 09:34:18;;;;;;;4.80;2.40;;;;;;;36.71;19.70;97298.30;110055;1248;72110;-67
2022/08/25 09:36:51;;;;;;;10.00;2.80;;;;;;;37.19;19.88;97288.55;110079;1247;68910;-67
2022/08/25 09:39:20;;;;;;;11.50;2.60;;;;;;;36.79;19.40;97291.22;110051;1247;68861;-67
2022/08/25 09:41:55;;;;;;;9.90;2.30;;;;;;;37.32;19.14;97287.17;110001;1249;59722;-67
2022/08/25 09:44:30;;;;;;;8.70;2.80;;;;;;;37.66;19.16;97282.46;110044;1250;59758;-67
2022/08/25 09:47:18;;;;;;;8.80;2.60;;;;;;;38.01;19.30;97284.08;110052;1248;71347;-68
2022/08/25 09:49:55;;;;;;;10.80;3.20;;;;;;;37.99;18.09;97274.24;110085;1248;70009;-68
2022/08/25 09:52:34;;;;;;;10.60;3.80;;;;;;;38.13;19.85;97271.80;110053;1247;70848;-68
2022/08/25 09:55:03;;;;;;;6.90;2.50;;;;;;;37.99;19.81;97274.05;110085;1247;59806;-68
2022/08/25 09:57:55;;;;;;;8.70;2.70;;;;;;;38.10;20.26;97269.66;110074;1246;59688;-67
2022/08/25 10:00:32;;;;;;;7.30;2.70;;;;;;;38.48;20.57;97271.13;109675;1251;71559;-67
2022/08/25 10:03:12;;;;;;;8.20;3.70;;;;;;;38.81;20.27;97267.48;109699;1250;69552;-66
2022/08/25 10:05:57;;;;;;;7.40;2.60;;;;;;;39.20;19.32;97258.39;109712;1250;68846;-67
2022/08/25 10:08:39;;;;;;;8.40;2.30;;;;;;;39.09;19.13;97254.58;109652;1250;59675;-67
2022/08/25 10:11:14;;;;;;;8.30;2.70;;;;;;;39.46;19.36;97255.36;109741;1250;59716;-70
2022/08/25 10:13:59;;;;;;;8.30;2.20;;;;;;;39.52;18.38;97250.81;109878;1250;71369;-67
2022/08/25 10:16:31;;;;;;;9.50;3.30;;;;;;;38.90;16.73;97250.63;109855;1250;70171;-67
2022/08/25 10:19:04;;;;;;;10.10;2.80;;;;;;;38.66;19.26;97249.62;109646;1250;69209;-69
2022/08/25 10:21:34;;;;;;;7.70;2.20;;;;;;;39.20;18.43;97242.22;109750;1250;59704;-67
2022/08/25 10:24:04;;;;;;;10.20;3.10;;;;;;;38.10;18.81;97243.74;109801;1249;59764;-67
2022/08/25 10:26:40;;;;;;;4.80;2.60;;;;;;;38.17;19.54;97244.23;109711;1250;71349;-67
2022/08/25 10:29:09;;;;;;;8.40;3.00;;;;;;;37.68;18.97;97239.56;109787;1250;69855;-67
2022/08/25 10:31:51;;;;;;;10.80;3.50;;;;;;;38.51;20.47;97239.19;109766;1250;70007;-67
2022/08/25 10:34:32;;;;;;;7.10;2.80;;;;;;;39.14;18.89;97233.64;109743;1250;59739;-67
2022/08/25 10:37:34;;;;;;;7.90;2.60;;;;;;;39.21;19.54;97234.98;109826;1250;59704;-68
2022/08/25 10:40:03;;;;;;;8.90;3.00;;;;;;;39.38;19.17;97228.29;109787;1250;71734;-67
2022/08/25 10:42:42;;;;;;;6.60;2.60;;;;;;;39.20;19.57;97225.27;109747;1250;69833;-67
2022/08/25 10:45:43;;;;;;;6.30;2.40;;;;;;;39.67;19.21;97223.02;109607;1250;68227;-67
2022/08/25 10:48:28;;;;;;;6.00;2.10;;;;;;;39.88;18.78;97224.48;109644;1250;59711;-67
2022/08/25 10:51:09;;;;;;;5.30;2.30;;;;;;;40.24;18.36;97223.28;109693;1250;59619;-67
2022/08/25 10:54:05;;;;;;;7.60;2.40;;;;;;;40.43;18.59;97221.88;109686;1250;71327;-67
2022/08/25 10:56:40;;;;;;;6.70;2.40;;;;;;;40.96;17.43;97217.04;109663;1250;69254;-68
2022/08/25 10:59:34;;;;;;;6.80;2.20;;;;;;;40.93;17.35;97214.07;109925;1247;69852;-68
2022/08/25 11:02:14;;;;;;;13.80;3.40;;;;;;;40.49;17.24;97212.15;110044;1247;59650;-68
2022/08/25 11:05:06;;;;;;;11.50;3.10;;;;;;;40.24;18.29;97204.63;110059;1247;59716;-68
2022/08/25 11:07:42;;;;;;;8.20;2.80;;;;;;;38.75;18.32;97203.25;110075;1246;71393;-66
2022/08/25 11:10:24;;;;;;;6.20;2.80;;;;;;;39.46;19.11;97203.70;110056;1247;68463;-66
2022/08/25 11:12:58;;;;;;;9.10;3.10;;;;;;;40.01;18.31;97198.33;110077;1247;69854;-68
2022/08/25 11:15:36;;;;;;;7.70;2.50;;;;;;;39.71;18.52;97193.27;110355;1247;59718;-67
2022/08/25 11:18:14;;;;;;;9.40;2.80;;;;;;;40.34;18.54;97192.08;110040;1247;59608;-67
2022/08/25 11:21:15;;;;;;;7.20;3.00;;;;;;;40.65;18.64;97192.13;110100;1247;71921;-66
2022/08/25 11:24:28;;;;;;;6.60;2.30;;;;;;;40.68;18.49;97189.59;109796;1247;68566;-67
2022/08/25 11:26:58;;;;;;;8.20;2.90;;;;;;;40.59;18.06;97185.47;110043;1247;68547;-67
2022/08/25 11:29:32;;;;;;;8.70;3.30;;;;;;;40.35;18.51;97183.89;110014;1247;59790;-68
2022/08/25 11:32:02;;;;;;;9.00;3.00;;;;;;;40.47;18.58;97180.95;109704;1250;59707;-68
2022/08/25 11:34:35;;;;;;;6.10;2.80;;;;;;;39.82;19.69;97175.56;110080;1247;71351;-68
2022/08/25 11:37:25;;;;;;;6.80;2.90;;;;;;;39.42;18.81;97174.83;110052;1247;70245;-67
2022/08/25 11:40:12;;;;;;;7.80;2.80;;;;;;;39.82;19.06;97169.49;110023;1248;69910;-67
2022/08/25 11:42:50;;;;;;;8.30;3.00;;;;;;;39.79;18.40;97168.20;109987;1249;59700;-67
2022/08/25 11:45:39;;;;;;;7.80;3.30;;;;;;;39.91;18.00;97163.52;110022;1249;59610;-67
2022/08/25 11:48:26;;;;;;;4.80;2.30;;;;;;;39.93;19.08;97167.24;109991;1248;72052;-67
2022/08/25 11:51:04;;;;;;;5.90;2.60;;;;;;;39.75;18.32;97165.59;110048;1250;69785;-67
2022/08/25 11:53:41;;;;;;;7.10;2.70;;;;;;;39.35;18.44;97164.09;110093;1249;69251;-68
2022/08/25 11:56:36;;;;;;;4.20;2.10;;;;;;;39.76;18.44;97165.67;110006;1249;59757;-67
2022/08/25 11:59:08;;;;;;;5.50;2.50;;;;;;;40.50;18.43;97159.88;109987;1248;59758;-68
2022/08/25 12:01:43;;;;;;;6.80;2.40;;;;;;;40.81;18.06;97156.06;109999;1248;70911;-67